Time;durP1;ratioP1;P1;durP2;ratioP2;P2;SDS_P1;SDS_P2;PMS_P1;PMS_P2;Temp;Humidity;BMP_temperature;BMP_pressure;BME280_temperature;BME280_humidity;BME280_pressure;Samples;Min_cycle;Max_cycle;Signal;HPM_P1;HPM_P2
2024/01/13 00:01:48;;;;;;;47.83;20.15;;;;;;;1.05;100.00;101801.41;5036950;28;20052;-75
2024/01/13 00:04:14;;;;;;;40.70;17.23;;;;;;;1.08;100.00;101796.38;5003632;28;20061;-74
2024/01/13 00:06:40;;;;;;;43.00;18.80;;;;;;;1.10;100.00;101793.47;5003019;28;20022;-74
2024/01/13 00:09:06;;;;;;;44.38;20.60;;;;;;;1.06;100.00;101790.28;5036158;28;20036;-74
2024/01/13 00:11:32;;;;;;;44.45;19.45;;;;;;;1.07;100.00;101788.41;5019429;28;20501;-74
2024/01/13 00:13:57;;;;;;;42.97;19.33;;;;;;;1.06;100.00;101792.19;5019786;28;20029;-74
2024/01/13 00:16:23;;;;;;;48.63;20.40;;;;;;;1.07;100.00;101788.41;5026852;28;20036;-74
2024/01/13 00:18:49;;;;;;;44.70;20.60;;;;;;;1.03;100.00;101779.75;5003151;28;20474;-74
2024/01/13 00:21:15;;;;;;;47.47;20.50;;;;;;;1.02;100.00;101769.84;5036859;28;20044;-74
2024/01/13 00:23:40;;;;;;;48.08;19.75;;;;;;;1.00;100.00;101760.97;5035767;28;20029;-74
2024/01/13 00:26:06;;;;;;;42.45;20.25;;;;;;;0.99;100.00;101758.44;5018827;28;20037;-74
2024/01/13 00:28:32;;;;;;;52.65;21.30;;;;;;;0.99;100.00;101753.81;5035762;28;20030;-74
2024/01/13 00:30:57;;;;;;;54.65;20.83;;;;;;;0.98;100.00;101757.63;5035328;28;20520;-74
2024/01/13 00:33:23;;;;;;;48.30;19.75;;;;;;;0.95;100.00;101766.22;5034474;28;20067;-74
2024/01/13 00:35:48;;;;;;;47.97;20.92;;;;;;;0.93;100.00;101760.09;5018940;28;20034;-74
2024/01/13 00:38:14;;;;;;;50.92;20.05;;;;;;;0.96;100.00;101759.69;5015815;28;20482;-74
2024/01/13 00:40:39;;;;;;;41.22;19.40;;;;;;;0.98;100.00;101754.88;4999154;28;20101;-74
2024/01/13 00:43:05;;;;;;;48.78;20.42;;;;;;;0.95;100.00;101746.22;4999518;28;20037;-74
2024/01/13 00:45:30;;;;;;;47.05;20.38;;;;;;;0.95;100.00;101743.47;5031509;28;20037;-74
2024/01/13 00:47:56;;;;;;;48.30;20.85;;;;;;;0.92;100.00;101735.66;5002802;28;20026;-74
2024/01/13 00:50:22;;;;;;;46.30;20.38;;;;;;;0.95;100.00;101730.66;5024436;28;20038;-74
2024/01/13 00:52:48;;;;;;;50.75;20.85;;;;;;;0.91;100.00;101732.09;5020956;28;20057;-74
2024/01/13 00:55:14;;;;;;;48.00;21.17;;;;;;;0.85;100.00;101727.44;5035279;28;20404;-74
2024/01/13 00:57:39;;;;;;;49.47;21.48;;;;;;;0.79;100.00;101720.88;5018659;28;20017;-74
2024/01/13 01:00:06;;;;;;;50.67;20.38;;;;;;;0.76;100.00;101720.44;4993713;28;20462;-74
2024/01/13 01:02:31;;;;;;;51.97;21.52;;;;;;;0.71;100.00;101715.56;4985927;28;20485;-74
2024/01/13 01:04:57;;;;;;;58.22;22.73;;;;;;;0.74;100.00;101697.91;5035984;28;20056;-74
2024/01/13 01:07:22;;;;;;;46.22;20.52;;;;;;;0.74;100.00;101706.09;4998369;28;20025;-74
2024/01/13 01:09:47;;;;;;;43.00;19.08;;;;;;;0.73;100.00;101710.75;5032268;28;20092;-74
2024/01/13 01:12:13;;;;;;;41.88;19.35;;;;;;;0.74;100.00;101711.56;5033672;28;20052;-75
2024/01/13 01:14:39;;;;;;;48.70;20.08;;;;;;;0.75;100.00;101699.59;5031457;28;20088;-74
2024/01/13 01:17:04;;;;;;;47.85;19.40;;;;;;;0.77;100.00;101702.97;5031118;28;20863;-74
2024/01/13 01:19:30;;;;;;;49.85;19.42;;;;;;;0.78;100.00;101697.31;5030664;28;20525;-75
2024/01/13 01:21:55;;;;;;;48.13;21.77;;;;;;;0.79;100.00;101698.16;5015912;28;20041;-75
2024/01/13 01:24:20;;;;;;;48.03;19.48;;;;;;;0.82;100.00;101697.75;5031246;28;20032;-74
2024/01/13 01:26:46;;;;;;;46.33;20.50;;;;;;;0.80;100.00;101688.88;5015123;28;20083;-74
2024/01/13 01:29:12;;;;;;;56.03;21.35;;;;;;;0.78;100.00;101693.72;4998672;28;20439;-74
2024/01/13 01:31:37;;;;;;;48.03;20.83;;;;;;;0.76;100.00;101684.88;5013375;28;20037;-74
2024/01/13 01:34:03;;;;;;;54.13;21.45;;;;;;;0.75;100.00;101683.16;5012687;28;20489;-74
2024/01/13 01:36:28;;;;;;;53.47;23.15;;;;;;;0.71;100.00;101692.84;4998326;28;20040;-74
2024/01/13 01:38:54;;;;;;;54.03;24.48;;;;;;;0.67;100.00;101673.25;5014384;28;20040;-74
2024/01/13 01:41:19;;;;;;;58.50;22.60;;;;;;;0.65;100.00;101684.38;4999374;28;20026;-74
2024/01/13 01:43:45;;;;;;;62.97;23.25;;;;;;;0.65;100.00;101687.13;5013550;28;20127;-74
2024/01/13 01:46:10;;;;;;;56.65;22.55;;;;;;;0.68;100.00;101679.56;5029848;28;20367;-74
2024/01/13 01:48:37;;;;;;;62.05;23.83;;;;;;;0.64;100.00;101677.25;5028161;28;20148;-74
2024/01/13 01:51:03;;;;;;;54.95;22.48;;;;;;;0.68;100.00;101668.63;4987616;28;20044;-74
2024/01/13 01:53:29;;;;;;;56.42;22.40;;;;;;;0.69;100.00;101681.25;4982712;28;20038;-74
2024/01/13 01:55:54;;;;;;;52.85;21.08;;;;;;;0.72;100.00;101676.22;4982143;28;20037;-74
2024/01/13 01:58:20;;;;;;;52.92;22.35;;;;;;;0.73;100.00;101677.91;5030684;28;20669;-74
2024/01/13 02:00:45;;;;;;;54.45;22.15;;;;;;;0.68;100.00;101674.09;5029967;28;20025;-74
2024/01/13 02:03:12;;;;;;;53.88;20.88;;;;;;;0.61;100.00;101680.38;5013778;28;20025;-74
2024/01/13 02:05:37;;;;;;;50.55;21.23;;;;;;;0.64;100.00;101679.09;5029790;28;20048;-74
2024/01/13 02:08:04;;;;;;;49.03;19.33;;;;;;;0.61;100.00;101677.63;5013567;28;20029;-74
2024/01/13 02:10:29;;;;;;;49.20;20.77;;;;;;;0.64;100.00;101681.84;5012683;28;20478;-74
2024/01/13 02:12:54;;;;;;;49.00;19.73;;;;;;;0.64;100.00;101677.25;5031838;28;20029;-75
2024/01/13 02:15:20;;;;;;;45.63;20.30;;;;;;;0.67;100.00;101681.47;5046966;28;20032;-74
2024/01/13 02:17:45;;;;;;;47.72;19.38;;;;;;;0.66;100.00;101674.28;5047393;28;20033;-74
2024/01/13 02:20:12;;;;;;;49.38;20.85;;;;;;;0.65;100.00;101675.34;4997893;28;20037;-74
2024/01/13 02:22:37;;;;;;;44.88;19.17;;;;;;;0.69;100.00;101675.78;5031112;28;20056;-74
2024/01/13 02:25:03;;;;;;;43.03;19.35;;;;;;;0.63;100.00;101672.78;5012727;28;20025;-74
2024/01/13 02:27:29;;;;;;;49.10;20.25;;;;;;;0.62;100.00;101668.38;5010321;28;20445;-74
2024/01/13 02:29:54;;;;;;;49.72;19.98;;;;;;;0.60;100.00;101667.72;5014549;28;20029;-74
2024/01/13 02:32:20;;;;;;;53.63;20.48;;;;;;;0.59;100.00;101673.41;5029307;28;20029;-74
2024/01/13 02:34:46;;;;;;;53.47;20.00;;;;;;;0.53;100.00;101664.13;5013387;28;20489;-74
2024/01/13 02:37:11;;;;;;;50.13;20.58;;;;;;;0.50;100.00;101663.66;5029418;28;20037;-74
2024/01/13 02:39:37;;;;;;;46.78;19.50;;;;;;;0.52;100.00;101667.88;5030184;28;20064;-75
2024/01/13 02:42:03;;;;;;;46.88;19.33;;;;;;;0.52;100.00;101677.97;5008585;28;20025;-74
2024/01/13 02:44:29;;;;;;;52.33;20.42;;;;;;;0.55;100.00;101680.31;5029090;28;20033;-74
2024/01/13 02:46:55;;;;;;;50.97;18.83;;;;;;;0.55;100.00;101670.22;5028932;28;20026;-74
2024/01/13 02:49:20;;;;;;;55.03;21.23;;;;;;;0.55;100.00;101662.00;5046376;28;20041;-74
2024/01/13 02:51:46;;;;;;;48.90;21.00;;;;;;;0.47;100.00;101662.16;5024249;28;20036;-74
2024/01/13 02:54:11;;;;;;;54.90;20.02;;;;;;;0.50;100.00;101658.19;4981372;28;20037;-75
2024/01/13 02:56:36;;;;;;;54.60;20.55;;;;;;;0.51;100.00;101658.00;5016396;28;20512;-74
2024/01/13 02:59:02;;;;;;;54.28;21.90;;;;;;;0.42;100.00;101642.81;5000477;28;20025;-74
2024/01/13 03:01:30;;;;;;;52.70;22.73;;;;;;;0.41;100.00;101643.84;5019532;28;20041;-74
2024/01/13 03:03:56;;;;;;;51.10;21.77;;;;;;;0.39;100.00;101641.31;5065812;28;20035;-74
2024/01/13 03:06:22;;;;;;;53.90;21.33;;;;;;;0.40;100.00;101644.88;5034518;28;20037;-74
2024/01/13 03:08:48;;;;;;;49.22;20.98;;;;;;;0.37;100.00;101637.94;5032511;28;20120;-74
2024/01/13 03:11:13;;;;;;;53.05;20.27;;;;;;;0.39;100.00;101637.72;5018223;28;20044;-74
2024/01/13 03:13:39;;;;;;;53.60;21.58;;;;;;;0.38;100.00;101636.88;4985599;28;20028;-74
2024/01/13 03:16:06;;;;;;;48.63;19.88;;;;;;;0.39;100.00;101626.78;5031705;28;20038;-74
2024/01/13 03:18:32;;;;;;;50.08;21.65;;;;;;;0.38;100.00;101623.22;5001131;28;20488;-75
2024/01/13 03:20:57;;;;;;;54.40;21.30;;;;;;;0.38;100.00;101616.91;5033431;28;20040;-74
2024/01/13 03:23:22;;;;;;;50.67;20.48;;;;;;;0.36;100.00;101624.44;5016589;28;20053;-74
2024/01/13 03:25:48;;;;;;;48.22;20.80;;;;;;;0.30;100.00;101612.44;5002023;28;20037;-74
2024/01/13 03:28:13;;;;;;;46.10;19.45;;;;;;;0.33;100.00;101605.72;5066916;28;20033;-74
2024/01/13 03:30:39;;;;;;;52.65;21.10;;;;;;;0.29;100.00;101604.44;5031076;28;20038;-74
2024/01/13 03:33:04;;;;;;;50.15;21.08;;;;;;;0.31;100.00;101602.38;4986333;28;20036;-74
2024/01/13 03:35:30;;;;;;;54.95;21.10;;;;;;;0.27;100.00;101598.34;5034937;28;20080;-74
2024/01/13 03:37:56;;;;;;;53.83;22.60;;;;;;;0.25;100.00;101584.84;5018508;28;20033;-74
2024/01/13 03:40:21;;;;;;;55.85;22.63;;;;;;;0.16;100.00;101578.69;5017070;28;20022;-74
2024/01/13 03:42:47;;;;;;;51.42;21.25;;;;;;;0.19;100.00;101580.19;5000338;28;20029;-74
2024/01/13 03:45:12;;;;;;;53.60;20.67;;;;;;;0.18;100.00;101570.31;5033343;28;20033;-74
2024/01/13 03:47:39;;;;;;;53.03;22.02;;;;;;;0.10;100.00;101568.56;5017640;28;20138;-74
2024/01/13 03:50:06;;;;;;;55.70;21.48;;;;;;;0.12;100.00;101571.13;4986479;28;20029;-74
2024/01/13 03:52:32;;;;;;;58.15;21.58;;;;;;;0.04;100.00;101561.19;5032476;28;20040;-74
2024/01/13 03:54:58;;;;;;;60.83;23.05;;;;;;;0.04;100.00;101561.19;5051185;28;20029;-74
2024/01/13 03:57:24;;;;;;;60.92;23.90;;;;;;;0.03;100.00;101562.25;5033346;28;20060;-74
2024/01/13 03:59:50;;;;;;;55.80;22.02;;;;;;;0.06;100.00;101555.53;5049356;28;20612;-74
2024/01/13 04:02:16;;;;;;;55.40;21.15;;;;;;;0.02;100.00;101557.78;5047759;28;20053;-74
2024/01/13 04:04:42;;;;;;;53.67;22.17;;;;;;;0.00;100.00;101551.72;4991890;28;20029;-74
2024/01/13 04:07:07;;;;;;;57.20;21.40;;;;;;;-0.01;100.00;101541.81;5016521;28;20030;-74
2024/01/13 04:09:34;;;;;;;58.05;22.08;;;;;;;-0.07;100.00;101534.41;5015608;28;20083;-74
2024/01/13 04:11:59;;;;;;;56.90;22.42;;;;;;;-0.11;100.00;101516.72;5034025;28;20037;-74
2024/01/13 04:14:25;;;;;;;66.32;23.75;;;;;;;-0.18;100.00;101526.78;5017652;28;20025;-74
2024/01/13 04:16:50;;;;;;;57.47;21.40;;;;;;;-0.17;100.00;101528.44;5031206;28;20037;-74
2024/01/13 04:19:15;;;;;;;53.97;20.45;;;;;;;-0.15;100.00;101534.56;5000648;28;20483;-74
2024/01/13 04:21:41;;;;;;;57.45;22.33;;;;;;;-0.20;100.00;101535.16;5033761;28;20045;-74
2024/01/13 04:24:07;;;;;;;54.45;22.17;;;;;;;-0.19;100.00;101538.75;5034623;28;20037;-74
2024/01/13 04:26:32;;;;;;;52.15;21.88;;;;;;;-0.15;100.00;101548.22;4985088;28;20120;-74
2024/01/13 04:28:58;;;;;;;57.25;22.23;;;;;;;-0.23;100.00;101551.94;5035101;28;20033;-74
2024/01/13 04:31:23;;;;;;;51.80;20.02;;;;;;;-0.20;100.00;101545.22;5001290;28;20033;-74
2024/01/13 04:33:50;;;;;;;52.20;20.27;;;;;;;-0.20;100.00;101550.69;5034881;28;20046;-74
2024/01/13 04:36:15;;;;;;;49.40;19.95;;;;;;;-0.11;100.00;101554.97;5035426;28;20033;-74
2024/01/13 04:38:41;;;;;;;50.08;18.77;;;;;;;-0.11;100.00;101557.69;5017220;28;20108;-74
2024/01/13 04:41:06;;;;;;;53.00;19.98;;;;;;;-0.14;100.00;101563.56;5017970;28;20594;-74
2024/01/13 04:43:33;;;;;;;49.72;19.95;;;;;;;-0.07;100.00;101567.19;5024707;28;20054;-74
2024/01/13 04:45:58;;;;;;;52.60;20.27;;;;;;;-0.04;100.00;101564.91;5034918;28;20063;-74
2024/01/13 04:48:24;;;;;;;52.13;19.73;;;;;;;-0.02;100.00;101568.28;5036847;28;20049;-74
2024/01/13 04:50:50;;;;;;;47.65;19.13;;;;;;;0.03;100.00;101566.84;5006200;28;20060;-74
2024/01/13 04:53:15;;;;;;;50.40;20.10;;;;;;;-0.03;100.00;101563.88;5036426;28;20168;-74
2024/01/13 04:55:41;;;;;;;50.67;20.50;;;;;;;0.00;100.00;101557.19;5035532;28;20038;-74
2024/01/13 04:58:06;;;;;;;54.35;20.30;;;;;;;0.03;100.00;101556.78;5035233;28;20029;-74
2024/01/13 05:00:33;;;;;;;53.83;19.02;;;;;;;0.04;100.00;101554.88;5035916;28;20025;-74
2024/01/13 05:02:59;;;;;;;48.85;19.20;;;;;;;0.02;100.00;101560.53;5019146;28;20029;-74
2024/01/13 05:05:24;;;;;;;45.53;19.60;;;;;;;-0.04;100.00;101553.97;4999115;28;20494;-74
2024/01/13 05:07:50;;;;;;;48.63;18.48;;;;;;;0.03;100.00;101555.91;5043443;28;20029;-74
2024/01/13 05:10:15;;;;;;;46.75;19.50;;;;;;;0.05;100.00;101548.38;5034837;28;20033;-74
2024/01/13 05:12:40;;;;;;;43.60;19.05;;;;;;;-0.01;100.00;101553.56;5015079;28;20041;-74
2024/01/13 05:15:07;;;;;;;48.83;19.63;;;;;;;0.01;100.00;101545.19;5015180;28;20025;-74
2024/01/13 05:17:33;;;;;;;49.25;18.15;;;;;;;0.03;100.00;101540.38;5026778;28;20033;-74
2024/01/13 05:19:58;;;;;;;45.85;20.02;;;;;;;0.02;100.00;101524.19;5018319;28;20044;-75
2024/01/13 05:22:24;;;;;;;44.05;18.67;;;;;;;0.04;100.00;101524.84;4998841;28;20422;-74
2024/01/13 05:24:50;;;;;;;47.78;19.52;;;;;;;0.05;100.00;101526.50;5031284;28;20034;-74
2024/01/13 05:27:15;;;;;;;53.03;19.85;;;;;;;-0.04;100.00;101523.09;5034697;28;20389;-74
2024/01/13 05:29:41;;;;;;;43.50;18.77;;;;;;;-0.02;100.00;101527.31;5034418;28;20063;-74
2024/01/13 05:32:06;;;;;;;42.85;17.40;;;;;;;-0.02;100.00;101529.22;5017949;28;20021;-74
2024/01/13 05:34:32;;;;;;;42.97;17.70;;;;;;;0.04;100.00;101535.75;5034387;28;20034;-74
2024/01/13 05:36:57;;;;;;;40.05;16.98;;;;;;;0.05;100.00;101540.16;5018184;28;20029;-74
2024/01/13 05:39:22;;;;;;;43.17;18.10;;;;;;;0.05;100.00;101537.44;5014701;28;20044;-74
2024/01/13 05:41:48;;;;;;;44.88;18.42;;;;;;;-0.02;100.00;101530.06;5042718;28;20025;-74
2024/01/13 05:44:13;;;;;;;44.60;18.58;;;;;;;-0.10;100.00;101535.66;5034351;28;20037;-74
2024/01/13 05:46:39;;;;;;;43.78;17.42;;;;;;;-0.02;100.00;101540.13;5034175;28;20030;-74
2024/01/13 05:49:04;;;;;;;42.10;18.27;;;;;;;-0.01;100.00;101539.09;4981928;28;20034;-74
2024/01/13 05:51:30;;;;;;;46.53;18.58;;;;;;;-0.03;100.00;101541.16;5027795;28;20025;-74
2024/01/13 05:53:56;;;;;;;40.47;17.20;;;;;;;-0.07;100.00;101529.81;5033870;28;20030;-74
2024/01/13 05:56:21;;;;;;;43.63;18.40;;;;;;;-0.10;100.00;101530.19;5034510;28;20033;-74
2024/01/13 05:58:47;;;;;;;43.20;18.33;;;;;;;-0.08;100.00;101524.56;5017453;28;20041;-74
2024/01/13 06:01:12;;;;;;;44.78;19.63;;;;;;;-0.06;100.00;101528.75;5017700;28;20033;-74
2024/01/13 06:03:37;;;;;;;43.85;17.58;;;;;;;-0.04;100.00;101520.38;5034222;28;20041;-74
2024/01/13 06:06:03;;;;;;;42.28;18.15;;;;;;;-0.04;100.00;101517.63;5001573;28;20036;-74
2024/01/13 06:08:29;;;;;;;38.28;17.40;;;;;;;-0.03;100.00;101511.13;4996199;28;20069;-74
2024/01/13 06:10:54;;;;;;;42.55;18.30;;;;;;;-0.04;100.00;101510.28;5017920;28;20509;-74
2024/01/13 06:13:20;;;;;;;39.92;16.60;;;;;;;-0.03;100.00;101524.78;5017369;28;20026;-74
2024/01/13 06:15:45;;;;;;;41.13;17.40;;;;;;;-0.04;100.00;101521.19;5033931;28;20088;-74
2024/01/13 06:18:11;;;;;;;42.40;17.20;;;;;;;-0.05;100.00;101514.06;5033824;28;20025;-74
2024/01/13 06:20:36;;;;;;;39.63;16.65;;;;;;;-0.04;100.00;101504.81;5034365;28;20029;-74
2024/01/13 06:23:02;;;;;;;37.63;16.85;;;;;;;-0.07;100.00;101518.03;5035477;28;20049;-74
2024/01/13 06:25:28;;;;;;;43.70;17.45;;;;;;;-0.11;100.00;101516.72;4992489;28;20118;-74
2024/01/13 06:27:54;;;;;;;42.08;18.02;;;;;;;-0.13;100.00;101518.84;5001633;28;20032;-74
2024/01/13 06:30:19;;;;;;;38.45;17.75;;;;;;;-0.17;100.00;101512.06;5034085;28;20037;-74
2024/01/13 06:32:45;;;;;;;40.60;17.88;;;;;;;-0.17;100.00;101512.06;5005194;28;20025;-74
2024/01/13 06:35:10;;;;;;;40.88;16.60;;;;;;;-0.15;100.00;101512.72;4991054;28;20537;-74
2024/01/13 06:37:36;;;;;;;38.55;16.92;;;;;;;-0.11;100.00;101511.28;5037919;28;20552;-74
2024/01/13 06:40:01;;;;;;;41.92;17.08;;;;;;;-0.11;100.00;101495.75;5002138;28;20026;-74
2024/01/13 06:42:27;;;;;;;45.20;17.42;;;;;;;-0.12;100.00;101494.03;5016997;28;20028;-74
2024/01/13 06:44:53;;;;;;;37.55;15.95;;;;;;;-0.11;100.00;101490.28;5001939;28;20037;-74
2024/01/13 06:47:20;;;;;;;37.10;15.95;;;;;;;-0.09;100.00;101496.38;5018550;28;20057;-74
2024/01/13 06:49:45;;;;;;;37.47;15.88;;;;;;;-0.07;100.00;101496.19;5036899;28;20531;-74
2024/01/13 06:52:12;;;;;;;38.72;17.23;;;;;;;-0.06;100.00;101492.41;5023734;28;20045;-74
2024/01/13 06:54:38;;;;;;;38.67;16.20;;;;;;;-0.07;100.00;101491.56;5005463;28;20733;-74
2024/01/13 06:57:04;;;;;;;43.20;18.45;;;;;;;-0.07;100.00;101490.72;5004540;28;20022;-74
2024/01/13 06:59:29;;;;;;;47.00;18.80;;;;;;;-0.07;100.00;101496.19;5037576;28;20037;-74
2024/01/13 07:01:55;;;;;;;48.42;19.67;;;;;;;-0.08;100.00;101494.50;5037258;28;20071;-74
2024/01/13 07:04:20;;;;;;;46.75;18.52;;;;;;;-0.08;100.00;101489.06;5037528;28;20029;-74
2024/01/13 07:06:45;;;;;;;46.50;19.15;;;;;;;-0.10;100.00;101486.50;5021035;28;20381;-74
2024/01/13 07:09:11;;;;;;;47.15;19.70;;;;;;;-0.10;100.00;101477.47;5004681;28;20481;-74
2024/01/13 07:11:36;;;;;;;41.13;16.92;;;;;;;-0.10;100.00;101480.22;5020306;28;20033;-75
2024/01/13 07:14:02;;;;;;;48.08;19.52;;;;;;;-0.05;100.00;101475.00;5020942;28;20033;-74
2024/01/13 07:16:28;;;;;;;49.83;20.75;;;;;;;-0.09;100.00;101460.03;5036995;28;20033;-74
2024/01/13 07:18:53;;;;;;;45.42;19.42;;;;;;;-0.14;100.00;101454.31;5017412;28;20117;-74
2024/01/13 07:21:19;;;;;;;53.70;21.58;;;;;;;-0.11;100.00;101473.03;5004279;28;20033;-74
2024/01/13 07:23:45;;;;;;;54.17;19.45;;;;;;;-0.08;100.00;101468.03;5036977;28;20036;-74
2024/01/13 07:26:10;;;;;;;50.90;20.05;;;;;;;-0.20;100.00;101455.13;5037022;28;20041;-74
2024/01/13 07:28:36;;;;;;;58.05;22.35;;;;;;;-0.24;100.00;101466.47;5003900;28;20025;-74
2024/01/13 07:31:02;;;;;;;50.60;21.13;;;;;;;-0.21;100.00;101473.41;5020300;28;20038;-74
2024/01/13 07:33:27;;;;;;;50.97;20.38;;;;;;;-0.18;100.00;101464.81;5017093;28;20040;-74
2024/01/13 07:35:53;;;;;;;52.75;20.42;;;;;;;-0.18;100.00;101464.81;5017198;28;20021;-74
2024/01/13 07:38:18;;;;;;;47.63;19.35;;;;;;;-0.18;100.00;101450.31;5017031;28;20026;-74
2024/01/13 07:40:44;;;;;;;53.17;20.15;;;;;;;-0.18;100.00;101453.06;5000961;28;20029;-74
2024/01/13 07:43:10;;;;;;;49.78;20.13;;;;;;;-0.23;100.00;101448.19;5037770;28;20036;-74
2024/01/13 07:45:37;;;;;;;55.58;20.40;;;;;;;-0.21;100.00;101453.47;5037409;28;20033;-74
2024/01/13 07:48:03;;;;;;;51.15;19.52;;;;;;;-0.21;100.00;101456.19;5003803;28;20025;-74
2024/01/13 07:50:28;;;;;;;61.17;22.15;;;;;;;-0.25;100.00;101451.13;5041391;28;20104;-74
2024/01/13 07:52:53;;;;;;;58.17;22.05;;;;;;;-0.25;100.00;101448.41;5067101;28;20044;-74
2024/01/13 07:55:19;;;;;;;66.50;24.00;;;;;;;-0.31;100.00;101451.91;5053116;28;20029;-74
2024/01/13 07:57:44;;;;;;;56.45;22.35;;;;;;;-0.31;100.00;101451.91;5017503;28;20025;-74
2024/01/13 08:00:12;;;;;;;56.38;21.27;;;;;;;-0.30;100.00;101459.06;5033097;28;20029;-74
2024/01/13 08:02:37;;;;;;;58.72;21.58;;;;;;;-0.27;100.00;101457.84;5016488;28;20103;-74
2024/01/13 08:05:03;;;;;;;54.35;19.95;;;;;;;-0.29;100.00;101455.28;5031412;28;20033;-74
2024/01/13 08:07:28;;;;;;;55.10;20.13;;;;;;;-0.39;100.00;101460.28;5001174;28;20037;-74
2024/01/13 08:09:54;;;;;;;60.13;21.25;;;;;;;-0.35;100.00;101457.97;5032297;28;20434;-74
2024/01/13 08:12:19;;;;;;;67.25;20.25;;;;;;;-0.49;100.00;101454.31;5002439;28;20026;-74
2024/01/13 08:14:45;;;;;;;54.17;20.20;;;;;;;-0.48;100.00;101454.09;5032460;28;20189;-74
2024/01/13 08:17:10;;;;;;;58.50;21.67;;;;;;;-0.51;100.00;101456.38;5016610;28;20029;-74
2024/01/13 08:19:37;;;;;;;55.47;19.60;;;;;;;-0.61;100.00;101455.88;5030742;28;20041;-74
2024/01/13 08:22:03;;;;;;;57.08;21.65;;;;;;;-0.60;100.00;101454.84;5001494;28;20045;-74
2024/01/13 08:24:30;;;;;;;53.50;19.83;;;;;;;-0.59;100.00;101459.25;5014106;28;20043;-74
2024/01/13 08:26:56;;;;;;;49.47;19.30;;;;;;;-0.58;100.00;101461.81;5001533;28;20175;-74
2024/01/13 08:29:21;;;;;;;56.30;20.45;;;;;;;-0.58;100.00;101455.50;5016905;28;20033;-74
2024/01/13 08:31:49;;;;;;;51.28;20.25;;;;;;;-0.56;100.00;101456.13;5020195;28;20034;-74
2024/01/13 08:34:14;;;;;;;47.55;19.20;;;;;;;-0.51;100.00;101461.84;5038949;28;20025;-74
2024/01/13 08:36:43;;;;;;;42.50;17.92;;;;;;;-0.51;100.00;101451.75;5035577;28;20036;-74
2024/01/13 08:39:09;;;;;;;52.55;19.90;;;;;;;-0.50;100.00;101452.63;5017891;28;20063;-74
2024/01/13 08:41:35;;;;;;;50.05;19.77;;;;;;;-0.48;100.00;101451.38;5014878;28;20512;-74
2024/01/13 08:44:01;;;;;;;52.30;20.00;;;;;;;-0.50;100.00;101455.38;5033667;28;20021;-74
2024/01/13 08:46:26;;;;;;;53.88;20.10;;;;;;;-0.55;100.00;101455.09;5035323;28;20394;-74
2024/01/13 08:48:52;;;;;;;50.45;20.63;;;;;;;-0.52;100.00;101457.44;5036458;28;20033;-74
2024/01/13 08:51:17;;;;;;;51.75;20.52;;;;;;;-0.51;100.00;101450.94;5024351;28;20045;-74
2024/01/13 08:53:44;;;;;;;63.92;21.08;;;;;;;-0.57;100.00;101454.44;5035726;28;20037;-74
2024/01/13 08:56:10;;;;;;;48.63;19.35;;;;;;;-0.56;100.00;101447.94;5019176;28;20120;-74
2024/01/13 08:58:36;;;;;;;50.63;20.55;;;;;;;-0.57;100.00;101451.72;5002138;28;20594;-74
2024/01/13 09:01:02;;;;;;;52.33;20.30;;;;;;;-0.58;100.00;101448.16;5018555;28;20030;-74
2024/01/13 09:03:28;;;;;;;51.17;19.92;;;;;;;-0.54;100.00;101451.31;5018867;28;20033;-74
2024/01/13 09:05:54;;;;;;;54.03;20.00;;;;;;;-0.50;100.00;101452.63;5015241;28;20022;-74
2024/01/13 09:08:20;;;;;;;48.58;18.42;;;;;;;-0.50;100.00;101452.63;5030566;28;20077;-74
2024/01/13 09:10:45;;;;;;;45.08;18.08;;;;;;;-0.45;100.00;101455.59;5015010;28;20056;-74
2024/01/13 09:13:11;;;;;;;44.90;18.02;;;;;;;-0.42;100.00;101460.66;5032291;28;20363;-74
2024/01/13 09:15:36;;;;;;;41.85;17.38;;;;;;;-0.41;100.00;101456.06;5034790;28;20040;-74
2024/01/13 09:18:03;;;;;;;44.15;17.30;;;;;;;-0.40;100.00;101458.56;5018134;28;20040;-74
2024/01/13 09:20:29;;;;;;;41.97;16.33;;;;;;;-0.42;100.00;101460.66;5018754;28;20033;-74
2024/01/13 09:22:54;;;;;;;44.75;18.15;;;;;;;-0.40;100.00;101464.03;4995730;28;20057;-75
2024/01/13 09:25:20;;;;;;;42.72;17.27;;;;;;;-0.43;100.00;101475.34;5001865;28;20036;-74
2024/01/13 09:27:45;;;;;;;42.40;18.30;;;;;;;-0.41;100.00;101481.47;5001617;28;20034;-74
2024/01/13 09:30:11;;;;;;;41.85;17.40;;;;;;;-0.37;100.00;101481.91;5034230;28;20029;-74
2024/01/13 09:32:37;;;;;;;40.47;16.42;;;;;;;-0.34;100.00;101478.75;5001876;28;20088;-74
2024/01/13 09:35:04;;;;;;;43.72;17.75;;;;;;;-0.32;100.00;101476.69;5034615;28;20029;-74
2024/01/13 09:37:29;;;;;;;40.53;17.13;;;;;;;-0.31;100.00;101472.91;5034355;28;20095;-74
2024/01/13 09:39:55;;;;;;;42.38;16.58;;;;;;;-0.28;100.00;101475.22;5018329;28;20021;-74
2024/01/13 09:42:35;;;;;;;40.28;17.15;;;;;;;-0.25;100.00;101481.16;5028952;28;20024;-74
2024/01/13 09:45:00;;;;;;;45.45;17.15;;;;;;;-0.23;100.00;101476.31;5034339;28;20105;-74
2024/01/13 09:47:26;;;;;;;42.55;16.70;;;;;;;-0.22;100.00;101477.19;4982009;28;20359;-74
2024/01/13 09:49:52;;;;;;;47.85;17.67;;;;;;;-0.18;100.00;101483.09;5046568;28;20029;-74
2024/01/13 09:52:18;;;;;;;39.97;15.88;;;;;;;-0.17;100.00;101476.56;5037875;28;20052;-74
2024/01/13 09:54:47;;;;;;;40.70;15.50;;;;;;;-0.14;100.00;101481.63;4990524;28;20486;-74
2024/01/13 09:57:13;;;;;;;40.83;15.55;;;;;;;-0.14;100.00;101479.78;5006429;28;20026;-74
2024/01/13 09:59:40;;;;;;;40.70;15.82;;;;;;;-0.11;100.00;101489.41;5033626;28;20033;-74
2024/01/13 10:02:06;;;;;;;39.67;15.43;;;;;;;-0.08;100.00;101486.31;5019986;28;20017;-74
2024/01/13 10:04:36;;;;;;;39.35;15.32;;;;;;;-0.07;100.00;101469.72;5010798;28;20037;-74
2024/01/13 10:07:02;;;;;;;38.97;16.20;;;;;;;-0.05;100.00;101467.63;5062854;28;20034;-74
2024/01/13 10:09:31;;;;;;;38.28;16.17;;;;;;;-0.02;100.00;101460.94;5049428;28;20041;-74
2024/01/13 10:12:08;;;;;;;37.78;16.25;;;;;;;-0.03;100.00;101454.63;5034794;28;20119;-74
2024/01/13 10:14:38;;;;;;;41.45;16.42;;;;;;;0.02;100.00;101453.16;5066702;28;20028;-74
2024/01/13 10:17:05;;;;;;;38.58;15.57;;;;;;;0.04;100.00;101459.28;4999102;28;20037;-74
2024/01/13 10:19:34;;;;;;;34.95;15.00;;;;;;;-0.02;100.00;101452.75;5031141;28;20048;-74
2024/01/13 10:21:59;;;;;;;41.25;15.60;;;;;;;-0.02;100.00;101452.75;5011959;28;20099;-74
2024/01/13 10:24:25;;;;;;;40.92;16.60;;;;;;;0.02;100.00;101455.91;5017310;28;20025;-74
2024/01/13 10:26:50;;;;;;;37.53;15.10;;;;;;;0.03;100.00;101463.91;5016464;28;20030;-74
2024/01/13 10:29:19;;;;;;;45.33;17.70;;;;;;;0.00;100.00;101469.78;5018466;28;20048;-74
2024/01/13 10:31:50;;;;;;;47.53;17.27;;;;;;;-0.08;100.00;101489.06;4999573;28;20034;-74
2024/01/13 10:34:19;;;;;;;44.95;17.33;;;;;;;-0.02;100.00;101477.31;5051088;28;20108;-74
2024/01/13 10:36:44;;;;;;;43.92;16.70;;;;;;;0.02;100.00;101473.13;5032987;28;20033;-74
2024/01/13 10:39:13;;;;;;;42.67;16.17;;;;;;;0.07;100.00;101481.56;5030950;28;20061;-74
2024/01/13 10:41:50;;;;;;;42.42;17.90;;;;;;;0.09;100.00;101481.38;5018647;28;20033;-74
2024/01/13 10:44:17;;;;;;;41.25;16.77;;;;;;;0.11;100.00;101471.94;4998472;28;20037;-74
2024/01/13 10:46:48;;;;;;;45.38;17.75;;;;;;;0.15;100.00;101475.09;5015453;28;20041;-74
2024/01/13 10:49:23;;;;;;;37.03;13.63;;;;;;;0.18;100.00;101461.88;5030275;28;20512;-74
2024/01/13 10:51:51;;;;;;;49.30;18.67;;;;;;;0.22;100.00;101462.31;5027996;28;20038;-74
2024/01/13 10:54:17;;;;;;;49.00;19.33;;;;;;;0.26;100.00;101457.31;5046360;28;20048;-74
2024/01/13 10:56:42;;;;;;;49.15;18.67;;;;;;;0.26;100.00;101452.69;4999353;28;20065;-74
2024/01/13 10:59:09;;;;;;;48.22;19.05;;;;;;;0.25;100.00;101439.19;5013050;28;20402;-74